Terminal Aerodrome Forecast
Issued by NWS

Home | Current Version | Previous Version | Graphics & Text | Print | Product List | Glossary On
Versions: 1 2 3 4 5 6 7 8 9 10 11 12 13 14 15 16 17 18 19 20 21 22 23 24
000
FTUS43 KTOP 232300
TAFMHK
TAF
KMHK 232338Z 2400/2424 17021G31KT P6SM VCSH SCT120
      TEMPO 2403/2405 26025G35KT 3SM TSRA BR OVC015CB
     FM240700 20012KT 3SM TSRA OVC015CB
     FM240900 32014G20KT 4SM SHRA BR OVC015
     FM241200 32016G24KT 6SM SHRA OVC025
     FM241600 32015G22KT P6SM BKN050=

USA.gov is the U.S. government's official web portal to all federal, state and local government web resources and services.